sensor_id;sensor_type;location;lat;lon;timestamp;temperature;humidity
3790;DHT22;1910;49.042;9.028;2024-03-02T00:04:51;6.60;99.90
3790;DHT22;1910;49.042;9.028;2024-03-02T00:12:12;7.00;99.90
3790;DHT22;1910;49.042;9.028;2024-03-02T00:14:39;7.00;99.90
3790;DHT22;1910;49.042;9.028;2024-03-02T00:22:00;7.00;99.90
3790;DHT22;1910;49.042;9.028;2024-03-02T00:24:32;7.00;99.90
3790;DHT22;1910;49.042;9.028;2024-03-02T00:34:17;6.80;99.90
3790;DHT22;1910;49.042;9.028;2024-03-02T00:39:12;6.90;99.90
3790;DHT22;1910;49.042;9.028;2024-03-02T00:41:40;6.90;99.90
3790;DHT22;1910;49.042;9.028;2024-03-02T00:44:09;6.90;99.90
3790;DHT22;1910;49.042;9.028;2024-03-02T00:46:38;6.90;99.90
3790;DHT22;1910;49.042;9.028;2024-03-02T00:49:05;7.00;99.90
3790;DHT22;1910;49.042;9.028;2024-03-02T00:51:32;6.90;99.90
3790;DHT22;1910;49.042;9.028;2024-03-02T00:54:00;6.80;99.90
3790;DHT22;1910;49.042;9.028;2024-03-02T01:03:45;7.00;99.90
3790;DHT22;1910;49.042;9.028;2024-03-02T01:11:03;7.00;99.90
3790;DHT22;1910;49.042;9.028;2024-03-02T01:18:22;6.80;99.90
3790;DHT22;1910;49.042;9.028;2024-03-02T01:28:08;6.80;99.90
3790;DHT22;1910;49.042;9.028;2024-03-02T01:50:04;6.60;99.90
3790;DHT22;1910;49.042;9.028;2024-03-02T01:54:55;6.60;99.90
3790;DHT22;1910;49.042;9.028;2024-03-02T02:02:14;6.50;99.90
3790;DHT22;1910;49.042;9.028;2024-03-02T02:16:51;6.40;99.90
3790;DHT22;1910;49.042;9.028;2024-03-02T02:19:17;6.00;99.90
3790;DHT22;1910;49.042;9.028;2024-03-02T02:21:43;6.40;99.90
3790;DHT22;1910;49.042;9.028;2024-03-02T02:38:48;6.50;99.90
3790;DHT22;1910;49.042;9.028;2024-03-02T02:41:14;6.20;99.90
3790;DHT22;1910;49.042;9.028;2024-03-02T02:48:31;6.50;99.90
3790;DHT22;1910;49.042;9.028;2024-03-02T02:53:23;6.50;99.90
3790;DHT22;1910;49.042;9.028;2024-03-02T03:00:40;6.30;99.90
3790;DHT22;1910;49.042;9.028;2024-03-02T03:03:07;6.30;99.90
3790;DHT22;1910;49.042;9.028;2024-03-02T03:07:58;6.20;99.90
3790;DHT22;1910;49.042;9.028;2024-03-02T03:10:24;6.30;99.90
3790;DHT22;1910;49.042;9.028;2024-03-02T03:15:17;6.30;99.90
3790;DHT22;1910;49.042;9.028;2024-03-02T03:20:10;6.40;99.90
3790;DHT22;1910;49.042;9.028;2024-03-02T03:25:02;6.40;99.90
3790;DHT22;1910;49.042;9.028;2024-03-02T03:27:28;6.40;99.90
3790;DHT22;1910;49.042;9.028;2024-03-02T03:32:20;6.30;99.90
3790;DHT22;1910;49.042;9.028;2024-03-02T03:34:46;6.20;99.90
3790;DHT22;1910;49.042;9.028;2024-03-02T03:51:50;6.20;99.90
3790;DHT22;1910;49.042;9.028;2024-03-02T03:56:42;6.20;99.90
3790;DHT22;1910;49.042;9.028;2024-03-02T04:04:04;6.10;99.90
3790;DHT22;1910;49.042;9.028;2024-03-02T04:11:22;6.10;99.90
3790;DHT22;1910;49.042;9.028;2024-03-02T04:18:39;6.20;99.90
3790;DHT22;1910;49.042;9.028;2024-03-02T04:30:50;6.10;99.90
3790;DHT22;1910;49.042;9.028;2024-03-02T04:38:07;6.10;99.90
3790;DHT22;1910;49.042;9.028;2024-03-02T04:40:33;6.20;99.90
3790;DHT22;1910;49.042;9.028;2024-03-02T04:45:25;6.20;99.90
3790;DHT22;1910;49.042;9.028;2024-03-02T04:55:08;6.20;99.90
3790;DHT22;1910;49.042;9.028;2024-03-02T04:58:00;6.10;99.90
3790;DHT22;1910;49.042;9.028;2024-03-02T05:02:53;6.20;99.90
3790;DHT22;1910;49.042;9.028;2024-03-02T05:10:10;6.20;99.90
3790;DHT22;1910;49.042;9.028;2024-03-02T05:12:39;6.20;99.90
3790;DHT22;1910;49.042;9.028;2024-03-02T05:15:07;6.20;99.90
3790;DHT22;1910;49.042;9.028;2024-03-02T05:19:59;6.10;99.90
3790;DHT22;1910;49.042;9.028;2024-03-02T05:34:34;6.20;99.90
3790;DHT22;1910;49.042;9.028;2024-03-02T05:39:27;6.20;99.90
3790;DHT22;1910;49.042;9.028;2024-03-02T05:41:52;6.20;99.90
3790;DHT22;1910;49.042;9.028;2024-03-02T05:44:18;6.20;99.90
3790;DHT22;1910;49.042;9.028;2024-03-02T05:46:44;6.30;99.90
3790;DHT22;1910;49.042;9.028;2024-03-02T05:54:01;6.50;99.90
3790;DHT22;1910;49.042;9.028;2024-03-02T05:56:28;6.50;99.90
3790;DHT22;1910;49.042;9.028;2024-03-02T05:58:53;6.60;99.90
3790;DHT22;1910;49.042;9.028;2024-03-02T06:03:59;6.70;99.90
3790;DHT22;1910;49.042;9.028;2024-03-02T06:11:18;6.70;99.90
3790;DHT22;1910;49.042;9.028;2024-03-02T06:13:47;6.60;99.90
3790;DHT22;1910;49.042;9.028;2024-03-02T06:16:13;7.00;99.90
3790;DHT22;1910;49.042;9.028;2024-03-02T06:21:05;6.50;99.90
3790;DHT22;1910;49.042;9.028;2024-03-02T06:25:57;6.50;99.90
3790;DHT22;1910;49.042;9.028;2024-03-02T06:28:24;6.50;99.90
3790;DHT22;1910;49.042;9.028;2024-03-02T06:35:42;6.40;99.90
3790;DHT22;1910;49.042;9.028;2024-03-02T06:47:51;6.40;99.90
3790;DHT22;1910;49.042;9.028;2024-03-02T06:50:19;6.40;99.90
3790;DHT22;1910;49.042;9.028;2024-03-02T06:52:44;6.50;99.90
3790;DHT22;1910;49.042;9.028;2024-03-02T06:55:10;6.50;99.90
3790;DHT22;1910;49.042;9.028;2024-03-02T07:00:03;6.60;99.90
3790;DHT22;1910;49.042;9.028;2024-03-02T07:02:30;6.60;99.90
3790;DHT22;1910;49.042;9.028;2024-03-02T07:07:22;6.80;99.90
3790;DHT22;1910;49.042;9.028;2024-03-02T07:09:47;7.10;99.90
3790;DHT22;1910;49.042;9.028;2024-03-02T07:24:44;7.40;99.90
3790;DHT22;1910;49.042;9.028;2024-03-02T07:27:12;7.40;99.90
3790;DHT22;1910;49.042;9.028;2024-03-02T07:29:38;7.40;99.90
3790;DHT22;1910;49.042;9.028;2024-03-02T07:32:04;7.40;99.90
3790;DHT22;1910;49.042;9.028;2024-03-02T07:39:24;7.10;99.90
3790;DHT22;1910;49.042;9.028;2024-03-02T07:46:45;6.80;99.90
3790;DHT22;1910;49.042;9.028;2024-03-02T07:49:12;6.80;99.90
3790;DHT22;1910;49.042;9.028;2024-03-02T07:51:39;6.70;99.90
3790;DHT22;1910;49.042;9.028;2024-03-02T08:01:30;7.00;99.90
3790;DHT22;1910;49.042;9.028;2024-03-02T08:04:00;7.00;99.90
3790;DHT22;1910;49.042;9.028;2024-03-02T08:06:29;7.10;99.90
3790;DHT22;1910;49.042;9.028;2024-03-02T08:11:21;4.90;99.90
3790;DHT22;1910;49.042;9.028;2024-03-02T08:13:47;7.10;99.90
3790;DHT22;1910;49.042;9.028;2024-03-02T08:16:14;7.20;99.90
3790;DHT22;1910;49.042;9.028;2024-03-02T08:18:41;7.20;99.90
3790;DHT22;1910;49.042;9.028;2024-03-02T08:23:34;7.50;99.90
3790;DHT22;1910;49.042;9.028;2024-03-02T09:00:04;12.90;99.90
3790;DHT22;1910;49.042;9.028;2024-03-02T09:41:38;14.40;99.90
3790;DHT22;1910;49.042;9.028;2024-03-02T09:53:55;15.70;99.90
3790;DHT22;1910;49.042;9.028;2024-03-02T09:56:21;15.60;99.90
3790;DHT22;1910;49.042;9.028;2024-03-02T10:01:13;15.10;99.90
3790;DHT22;1910;49.042;9.028;2024-03-02T10:06:24;14.50;99.90
3790;DHT22;1910;49.042;9.028;2024-03-02T10:11:33;14.20;99.90
3790;DHT22;1910;49.042;9.028;2024-03-02T10:14:12;13.50;99.90
3790;DHT22;1910;49.042;9.028;2024-03-02T10:16:40;13.10;99.90
3790;DHT22;1910;49.042;9.028;2024-03-02T10:19:19;12.80;99.90
3790;DHT22;1910;49.042;9.028;2024-03-02T10:21:54;12.90;99.90
3790;DHT22;1910;49.042;9.028;2024-03-02T10:24:21;13.10;99.90
3790;DHT22;1910;49.042;9.028;2024-03-02T10:31:41;13.00;99.90
3790;DHT22;1910;49.042;9.028;2024-03-02T10:39:05;13.30;99.90
3790;DHT22;1910;49.042;9.028;2024-03-02T10:41:35;13.50;99.90
3790;DHT22;1910;49.042;9.028;2024-03-02T10:44:06;13.40;99.90
3790;DHT22;1910;49.042;9.028;2024-03-02T10:46:33;13.60;99.90
3790;DHT22;1910;49.042;9.028;2024-03-02T10:49:00;13.60;99.90
3790;DHT22;1910;49.042;9.028;2024-03-02T10:56:30;13.70;99.90
3790;DHT22;1910;49.042;9.028;2024-03-02T11:01:43;13.70;99.90
3790;DHT22;1910;49.042;9.028;2024-03-02T11:06:36;13.80;99.90
3790;DHT22;1910;49.042;9.028;2024-03-02T11:09:07;14.00;99.90
3790;DHT22;1910;49.042;9.028;2024-03-02T11:11:39;14.10;99.90
3790;DHT22;1910;49.042;9.028;2024-03-02T11:14:10;14.20;99.90
3790;DHT22;1910;49.042;9.028;2024-03-02T11:19:11;14.30;99.90
3790;DHT22;1910;49.042;9.028;2024-03-02T11:24:36;14.50;99.90
3790;DHT22;1910;49.042;9.028;2024-03-02T11:27:03;14.20;99.90
3790;DHT22;1910;49.042;9.028;2024-03-02T11:32:14;14.80;99.90
3790;DHT22;1910;49.042;9.028;2024-03-02T11:34:45;15.00;99.90
3790;DHT22;1910;49.042;9.028;2024-03-02T11:37:19;15.10;99.90
3790;DHT22;1910;49.042;9.028;2024-03-02T11:39:49;15.00;99.90
3790;DHT22;1910;49.042;9.028;2024-03-02T11:44:43;15.50;99.90
3790;DHT22;1910;49.042;9.028;2024-03-02T11:47:11;15.30;99.90
3790;DHT22;1910;49.042;9.028;2024-03-02T11:49:48;14.90;99.90
3790;DHT22;1910;49.042;9.028;2024-03-02T11:52:16;14.90;99.90
3790;DHT22;1910;49.042;9.028;2024-03-02T11:54:44;14.90;99.90
3790;DHT22;1910;49.042;9.028;2024-03-02T11:57:19;14.90;99.90
3790;DHT22;1910;49.042;9.028;2024-03-02T12:02:19;15.30;99.90
3790;DHT22;1910;49.042;9.028;2024-03-02T12:04:47;15.40;99.90
3790;DHT22;1910;49.042;9.028;2024-03-02T12:07:19;15.40;99.90
3790;DHT22;1910;49.042;9.028;2024-03-02T12:14:51;15.30;99.90
3790;DHT22;1910;49.042;9.028;2024-03-02T12:34:21;15.60;99.90
3790;DHT22;1910;49.042;9.028;2024-03-02T12:39:18;15.60;99.80
3790;DHT22;1910;49.042;9.028;2024-03-02T12:49:09;15.40;99.90
3790;DHT22;1910;49.042;9.028;2024-03-02T12:51:40;15.70;99.90
3790;DHT22;1910;49.042;9.028;2024-03-02T12:54:07;15.70;99.90
3790;DHT22;1910;49.042;9.028;2024-03-02T12:58:59;15.80;99.90
3790;DHT22;1910;49.042;9.028;2024-03-02T13:03:53;15.80;99.90
3790;DHT22;1910;49.042;9.028;2024-03-02T13:06:21;13.50;99.80
3790;DHT22;1910;49.042;9.028;2024-03-02T13:08:47;15.90;99.90
3790;DHT22;1910;49.042;9.028;2024-03-02T13:11:16;15.70;99.80
3790;DHT22;1910;49.042;9.028;2024-03-02T13:16:09;15.60;99.10
3790;DHT22;1910;49.042;9.028;2024-03-02T13:33:15;15.80;99.50
3790;DHT22;1910;49.042;9.028;2024-03-02T13:43:02;15.90;98.80
3790;DHT22;1910;49.042;9.028;2024-03-02T13:50:20;15.70;99.90
3790;DHT22;1910;49.042;9.028;2024-03-02T13:57:38;16.10;98.70
3790;DHT22;1910;49.042;9.028;2024-03-02T14:00:05;16.10;99.10
3790;DHT22;1910;49.042;9.028;2024-03-02T14:19:46;16.00;97.80
3790;DHT22;1910;49.042;9.028;2024-03-02T14:27:09;15.90;99.10
3790;DHT22;1910;49.042;9.028;2024-03-02T14:46:41;15.90;99.90
3790;DHT22;1910;49.042;9.028;2024-03-02T14:49:08;15.90;96.50
3790;DHT22;1910;49.042;9.028;2024-03-02T15:16:03;15.60;95.60
3790;DHT22;1910;49.042;9.028;2024-03-02T15:30:40;15.20;98.80
3790;DHT22;1910;49.042;9.028;2024-03-02T15:33:05;15.10;99.90
3790;DHT22;1910;49.042;9.028;2024-03-02T15:35:31;15.00;99.10
3790;DHT22;1910;49.042;9.028;2024-03-02T16:04:43;14.30;95.90
3790;DHT22;1910;49.042;9.028;2024-03-02T16:14:28;14.10;96.40
3790;DHT22;1910;49.042;9.028;2024-03-02T16:43:43;12.70;99.90
3790;DHT22;1910;49.042;9.028;2024-03-02T16:48:37;12.30;99.90
3790;DHT22;1910;49.042;9.028;2024-03-02T16:55:59;11.60;99.90
3790;DHT22;1910;49.042;9.028;2024-03-02T17:03:18;11.50;99.90
3790;DHT22;1910;49.042;9.028;2024-03-02T17:13:02;11.70;99.90
3790;DHT22;1910;49.042;9.028;2024-03-02T17:25:12;12.20;99.90
3790;DHT22;1910;49.042;9.028;2024-03-02T17:30:04;12.40;99.90
3790;DHT22;1910;49.042;9.028;2024-03-02T17:32:31;12.40;99.90
3790;DHT22;1910;49.042;9.028;2024-03-02T18:01:44;12.40;99.90
3790;DHT22;1910;49.042;9.028;2024-03-02T18:11:28;12.40;99.90
3790;DHT22;1910;49.042;9.028;2024-03-02T18:21:13;12.30;99.90
3790;DHT22;1910;49.042;9.028;2024-03-02T18:28:31;12.10;99.90
3790;DHT22;1910;49.042;9.028;2024-03-02T18:33:23;11.90;99.90
3790;DHT22;1910;49.042;9.028;2024-03-02T18:40:42;11.80;99.90
3790;DHT22;1910;49.042;9.028;2024-03-02T18:48:04;11.80;99.90
3790;DHT22;1910;49.042;9.028;2024-03-02T19:00:14;11.60;99.90
3790;DHT22;1910;49.042;9.028;2024-03-02T19:02:40;11.60;99.90
3790;DHT22;1910;49.042;9.028;2024-03-02T19:05:07;11.60;99.90
3790;DHT22;1910;49.042;9.028;2024-03-02T19:07:33;13.70;99.90
3790;DHT22;1910;49.042;9.028;2024-03-02T19:09:58;11.40;99.90
3790;DHT22;1910;49.042;9.028;2024-03-02T19:12:24;10.60;99.90
3790;DHT22;1910;49.042;9.028;2024-03-02T19:14:50;11.40;99.90
3790;DHT22;1910;49.042;9.028;2024-03-02T19:24:37;11.30;99.90
3790;DHT22;1910;49.042;9.028;2024-03-02T19:27:04;11.30;99.90
3790;DHT22;1910;49.042;9.028;2024-03-02T19:34:23;11.10;99.90
3790;DHT22;1910;49.042;9.028;2024-03-02T19:41:47;11.10;99.90
3790;DHT22;1910;49.042;9.028;2024-03-02T19:56:23;10.80;99.90
3790;DHT22;1910;49.042;9.028;2024-03-02T20:01:17;10.80;99.90
3790;DHT22;1910;49.042;9.028;2024-03-02T20:03:43;10.80;99.90
3790;DHT22;1910;49.042;9.028;2024-03-02T20:06:09;10.70;99.90
3790;DHT22;1910;49.042;9.028;2024-03-02T20:08:35;10.70;99.90
3790;DHT22;1910;49.042;9.028;2024-03-02T20:11:02;10.70;99.90
3790;DHT22;1910;49.042;9.028;2024-03-02T20:15:56;10.50;99.90
3790;DHT22;1910;49.042;9.028;2024-03-02T20:20:52;10.40;99.90
3790;DHT22;1910;49.042;9.028;2024-03-02T20:30:39;10.10;99.90
3790;DHT22;1910;49.042;9.028;2024-03-02T20:37:59;10.00;99.90
3790;DHT22;1910;49.042;9.028;2024-03-02T20:40:25;10.00;99.90
3790;DHT22;1910;49.042;9.028;2024-03-02T20:50:12;10.00;99.90
3790;DHT22;1910;49.042;9.028;2024-03-02T20:52:42;10.00;99.90
3790;DHT22;1910;49.042;9.028;2024-03-02T21:12:20;9.70;99.90
3790;DHT22;1910;49.042;9.028;2024-03-02T21:19:41;9.50;99.90
3790;DHT22;1910;49.042;9.028;2024-03-02T21:27:02;9.40;99.90
3790;DHT22;1910;49.042;9.028;2024-03-02T21:31:54;9.30;99.90
3790;DHT22;1910;49.042;9.028;2024-03-02T21:36:57;9.20;99.90
3790;DHT22;1910;49.042;9.028;2024-03-02T21:41:51;9.30;99.90
3790;DHT22;1910;49.042;9.028;2024-03-02T21:44:17;9.30;99.90
3790;DHT22;1910;49.042;9.028;2024-03-02T21:46:45;9.20;99.90
3790;DHT22;1910;49.042;9.028;2024-03-02T21:51:37;9.20;99.90
3790;DHT22;1910;49.042;9.028;2024-03-02T21:56:30;9.30;99.90
3790;DHT22;1910;49.042;9.028;2024-03-02T21:59:01;9.30;99.90
3790;DHT22;1910;49.042;9.028;2024-03-02T22:13:38;9.40;99.90
3790;DHT22;1910;49.042;9.028;2024-03-02T22:16:05;9.60;99.90
3790;DHT22;1910;49.042;9.028;2024-03-02T22:20:56;9.20;99.90
3790;DHT22;1910;49.042;9.028;2024-03-02T22:23:22;8.90;99.90
3790;DHT22;1910;49.042;9.028;2024-03-02T22:28:14;9.10;99.90
3790;DHT22;1910;49.042;9.028;2024-03-02T22:30:39;10.80;99.90
3790;DHT22;1910;49.042;9.028;2024-03-02T22:33:08;9.10;99.90
3790;DHT22;1910;49.042;9.028;2024-03-02T22:35:39;9.20;99.90
3790;DHT22;1910;49.042;9.028;2024-03-02T22:50:16;9.10;99.90
3790;DHT22;1910;49.042;9.028;2024-03-02T22:55:08;9.00;99.90
3790;DHT22;1910;49.042;9.028;2024-03-02T22:57:35;9.20;99.90
3790;DHT22;1910;49.042;9.028;2024-03-02T23:00:04;8.90;99.90
3790;DHT22;1910;49.042;9.028;2024-03-02T23:02:45;8.90;99.90
3790;DHT22;1910;49.042;9.028;2024-03-02T23:05:12;8.90;99.90
3790;DHT22;1910;49.042;9.028;2024-03-02T23:10:05;8.50;99.90
3790;DHT22;1910;49.042;9.028;2024-03-02T23:12:30;8.50;99.90
3790;DHT22;1910;49.042;9.028;2024-03-02T23:14:57;8.40;99.90
3790;DHT22;1910;49.042;9.028;2024-03-02T23:17:23;8.40;99.90
3790;DHT22;1910;49.042;9.028;2024-03-02T23:24:40;8.10;99.90
3790;DHT22;1910;49.042;9.028;2024-03-02T23:27:06;7.80;99.90
3790;DHT22;1910;49.042;9.028;2024-03-02T23:32:00;7.40;99.90
3790;DHT22;1910;49.042;9.028;2024-03-02T23:34:28;7.40;99.90
3790;DHT22;1910;49.042;9.028;2024-03-02T23:36:54;7.10;99.90
3790;DHT22;1910;49.042;9.028;2024-03-02T23:42:05;6.90;99.90
3790;DHT22;1910;49.042;9.028;2024-03-02T23:46:59;7.20;99.90
3790;DHT22;1910;49.042;9.028;2024-03-02T23:49:24;7.30;99.90
3790;DHT22;1910;49.042;9.028;2024-03-02T23:51:50;7.20;99.90
